sensor_id;sensor_type;location;lat;lon;timestamp;temperature;humidity
33207;DHT22;19565;46.602;11.534;2023-07-08T00:01:11;20.20;99.90
33207;DHT22;19565;46.602;11.534;2023-07-08T00:03:41;20.20;99.90
33207;DHT22;19565;46.602;11.534;2023-07-08T00:06:13;20.20;99.90
33207;DHT22;19565;46.602;11.534;2023-07-08T00:08:42;20.10;99.90
33207;DHT22;19565;46.602;11.534;2023-07-08T00:11:11;20.10;99.90
33207;DHT22;19565;46.602;11.534;2023-07-08T00:13:39;20.10;99.90
33207;DHT22;19565;46.602;11.534;2023-07-08T00:16:10;20.10;99.90
33207;DHT22;19565;46.602;11.534;2023-07-08T00:18:40;20.10;99.90
33207;DHT22;19565;46.602;11.534;2023-07-08T00:21:09;20.10;99.90
33207;DHT22;19565;46.602;11.534;2023-07-08T00:23:43;20.10;99.90
33207;DHT22;19565;46.602;11.534;2023-07-08T00:26:17;20.10;99.90
33207;DHT22;19565;46.602;11.534;2023-07-08T00:28:46;20.10;99.90
33207;DHT22;19565;46.602;11.534;2023-07-08T00:31:14;20.10;99.90
33207;DHT22;19565;46.602;11.534;2023-07-08T00:33:43;20.10;99.90
33207;DHT22;19565;46.602;11.534;2023-07-08T00:36:13;20.10;99.90
33207;DHT22;19565;46.602;11.534;2023-07-08T00:38:42;20.00;99.90
33207;DHT22;19565;46.602;11.534;2023-07-08T00:41:14;20.00;99.90
33207;DHT22;19565;46.602;11.534;2023-07-08T00:43:47;20.00;99.90
33207;DHT22;19565;46.602;11.534;2023-07-08T00:46:25;20.00;99.90
33207;DHT22;19565;46.602;11.534;2023-07-08T00:49:08;20.00;99.90
33207;DHT22;19565;46.602;11.534;2023-07-08T00:51:38;20.00;99.90
33207;DHT22;19565;46.602;11.534;2023-07-08T00:54:10;20.00;99.90
33207;DHT22;19565;46.602;11.534;2023-07-08T00:56:42;20.10;99.90
33207;DHT22;19565;46.602;11.534;2023-07-08T00:59:13;20.10;99.90
33207;DHT22;19565;46.602;11.534;2023-07-08T01:01:43;20.10;99.90
33207;DHT22;19565;46.602;11.534;2023-07-08T01:04:16;19.90;99.90
33207;DHT22;19565;46.602;11.534;2023-07-08T01:06:49;19.80;99.90
33207;DHT22;19565;46.602;11.534;2023-07-08T01:09:25;19.80;99.90
33207;DHT22;19565;46.602;11.534;2023-07-08T01:11:56;19.80;99.90
33207;DHT22;19565;46.602;11.534;2023-07-08T01:14:27;19.90;99.90
33207;DHT22;19565;46.602;11.534;2023-07-08T01:16:58;19.90;99.90
33207;DHT22;19565;46.602;11.534;2023-07-08T01:19:28;19.70;99.90
33207;DHT22;19565;46.602;11.534;2023-07-08T01:22:02;19.50;99.90
33207;DHT22;19565;46.602;11.534;2023-07-08T01:24:32;19.60;99.90
33207;DHT22;19565;46.602;11.534;2023-07-08T01:27:02;19.70;99.90
33207;DHT22;19565;46.602;11.534;2023-07-08T01:29:32;19.70;99.90
33207;DHT22;19565;46.602;11.534;2023-07-08T01:32:00;19.80;99.90
33207;DHT22;19565;46.602;11.534;2023-07-08T01:34:29;19.90;99.90
33207;DHT22;19565;46.602;11.534;2023-07-08T01:37:01;19.90;99.90
33207;DHT22;19565;46.602;11.534;2023-07-08T01:39:31;20.00;99.90
33207;DHT22;19565;46.602;11.534;2023-07-08T01:41:59;20.00;99.90
33207;DHT22;19565;46.602;11.534;2023-07-08T01:44:30;20.00;99.90
33207;DHT22;19565;46.602;11.534;2023-07-08T01:47:00;20.00;99.90
33207;DHT22;19565;46.602;11.534;2023-07-08T01:49:30;20.10;99.90
33207;DHT22;19565;46.602;11.534;2023-07-08T01:51:59;20.10;99.90
33207;DHT22;19565;46.602;11.534;2023-07-08T01:54:28;20.10;99.90
33207;DHT22;19565;46.602;11.534;2023-07-08T01:56:56;20.10;99.90
33207;DHT22;19565;46.602;11.534;2023-07-08T01:59:25;20.10;99.90
33207;DHT22;19565;46.602;11.534;2023-07-08T02:01:53;20.10;99.90
33207;DHT22;19565;46.602;11.534;2023-07-08T02:04:23;20.00;99.90
33207;DHT22;19565;46.602;11.534;2023-07-08T02:06:52;19.90;99.90
33207;DHT22;19565;46.602;11.534;2023-07-08T02:09:21;19.80;99.90
33207;DHT22;19565;46.602;11.534;2023-07-08T02:11:51;19.70;99.90
33207;DHT22;19565;46.602;11.534;2023-07-08T02:14:19;19.60;99.90
33207;DHT22;19565;46.602;11.534;2023-07-08T02:16:47;19.50;99.90
33207;DHT22;19565;46.602;11.534;2023-07-08T02:19:15;19.60;99.90
33207;DHT22;19565;46.602;11.534;2023-07-08T02:21:44;19.70;99.90
33207;DHT22;19565;46.602;11.534;2023-07-08T02:24:11;19.70;99.90
33207;DHT22;19565;46.602;11.534;2023-07-08T02:26:39;19.80;99.90
33207;DHT22;19565;46.602;11.534;2023-07-08T02:29:09;19.80;99.90
33207;DHT22;19565;46.602;11.534;2023-07-08T02:31:37;19.80;99.90
33207;DHT22;19565;46.602;11.534;2023-07-08T02:34:05;19.70;99.90
33207;DHT22;19565;46.602;11.534;2023-07-08T02:36:33;19.80;99.90
33207;DHT22;19565;46.602;11.534;2023-07-08T02:39:01;19.80;99.90
33207;DHT22;19565;46.602;11.534;2023-07-08T02:41:29;19.80;99.90
33207;DHT22;19565;46.602;11.534;2023-07-08T02:43:57;19.90;99.90
33207;DHT22;19565;46.602;11.534;2023-07-08T02:46:27;19.90;99.90
33207;DHT22;19565;46.602;11.534;2023-07-08T02:48:55;20.00;99.90
33207;DHT22;19565;46.602;11.534;2023-07-08T02:51:23;20.00;99.90
33207;DHT22;19565;46.602;11.534;2023-07-08T02:53:51;20.00;99.90
33207;DHT22;19565;46.602;11.534;2023-07-08T02:56:19;19.90;99.90
33207;DHT22;19565;46.602;11.534;2023-07-08T02:58:47;19.90;99.90
33207;DHT22;19565;46.602;11.534;2023-07-08T03:01:15;20.00;99.90
33207;DHT22;19565;46.602;11.534;2023-07-08T03:03:46;20.00;99.90
33207;DHT22;19565;46.602;11.534;2023-07-08T03:06:14;20.00;99.90
33207;DHT22;19565;46.602;11.534;2023-07-08T03:08:42;19.90;99.90
33207;DHT22;19565;46.602;11.534;2023-07-08T03:11:12;20.00;99.90
33207;DHT22;19565;46.602;11.534;2023-07-08T03:13:40;20.00;99.90
33207;DHT22;19565;46.602;11.534;2023-07-08T03:16:08;19.90;99.90
33207;DHT22;19565;46.602;11.534;2023-07-08T03:18:40;20.00;99.90
33207;DHT22;19565;46.602;11.534;2023-07-08T03:21:15;20.00;99.90
33207;DHT22;19565;46.602;11.534;2023-07-08T03:23:43;20.00;99.90
33207;DHT22;19565;46.602;11.534;2023-07-08T03:26:13;19.90;99.90
33207;DHT22;19565;46.602;11.534;2023-07-08T03:28:42;19.90;99.90
33207;DHT22;19565;46.602;11.534;2023-07-08T03:31:10;19.90;99.90
33207;DHT22;19565;46.602;11.534;2023-07-08T03:33:38;19.80;99.90
33207;DHT22;19565;46.602;11.534;2023-07-08T03:36:11;19.80;99.90
33207;DHT22;19565;46.602;11.534;2023-07-08T03:38:41;19.90;99.90
33207;DHT22;19565;46.602;11.534;2023-07-08T03:41:11;19.90;99.90
33207;DHT22;19565;46.602;11.534;2023-07-08T03:43:39;19.90;99.90
33207;DHT22;19565;46.602;11.534;2023-07-08T03:46:08;19.90;99.90
33207;DHT22;19565;46.602;11.534;2023-07-08T03:48:37;19.90;99.90
33207;DHT22;19565;46.602;11.534;2023-07-08T03:51:08;19.90;99.90
33207;DHT22;19565;46.602;11.534;2023-07-08T03:53:37;19.80;99.90
33207;DHT22;19565;46.602;11.534;2023-07-08T03:56:08;19.80;99.90
33207;DHT22;19565;46.602;11.534;2023-07-08T03:58:40;19.90;99.90
33207;DHT22;19565;46.602;11.534;2023-07-08T04:01:12;19.90;99.90
33207;DHT22;19565;46.602;11.534;2023-07-08T04:03:42;19.90;99.90
33207;DHT22;19565;46.602;11.534;2023-07-08T04:06:11;19.90;99.90
33207;DHT22;19565;46.602;11.534;2023-07-08T04:08:39;19.90;99.90
33207;DHT22;19565;46.602;11.534;2023-07-08T04:11:10;19.90;99.90
33207;DHT22;19565;46.602;11.534;2023-07-08T04:13:39;19.90;99.90
33207;DHT22;19565;46.602;11.534;2023-07-08T04:16:10;19.90;99.90
33207;DHT22;19565;46.602;11.534;2023-07-08T04:18:46;19.90;99.90
33207;DHT22;19565;46.602;11.534;2023-07-08T04:21:14;19.90;99.90
33207;DHT22;19565;46.602;11.534;2023-07-08T04:23:45;20.00;99.90
33207;DHT22;19565;46.602;11.534;2023-07-08T04:26:15;19.90;99.90
33207;DHT22;19565;46.602;11.534;2023-07-08T04:28:43;20.00;99.90
33207;DHT22;19565;46.602;11.534;2023-07-08T04:31:11;19.90;99.90
33207;DHT22;19565;46.602;11.534;2023-07-08T04:33:39;20.00;99.90
33207;DHT22;19565;46.602;11.534;2023-07-08T04:36:12;20.00;99.90
33207;DHT22;19565;46.602;11.534;2023-07-08T04:38:41;20.00;99.90
33207;DHT22;19565;46.602;11.534;2023-07-08T04:41:15;19.90;99.90
33207;DHT22;19565;46.602;11.534;2023-07-08T04:43:43;19.80;99.90
33207;DHT22;19565;46.602;11.534;2023-07-08T04:46:18;19.80;99.90
33207;DHT22;19565;46.602;11.534;2023-07-08T04:48:47;19.90;99.90
33207;DHT22;19565;46.602;11.534;2023-07-08T04:51:15;19.90;99.90
33207;DHT22;19565;46.602;11.534;2023-07-08T04:53:45;19.90;99.90
33207;DHT22;19565;46.602;11.534;2023-07-08T04:56:15;19.90;99.90
33207;DHT22;19565;46.602;11.534;2023-07-08T04:58:43;19.90;99.90
33207;DHT22;19565;46.602;11.534;2023-07-08T05:01:11;19.90;99.90
33207;DHT22;19565;46.602;11.534;2023-07-08T05:03:39;19.90;99.90
33207;DHT22;19565;46.602;11.534;2023-07-08T05:06:07;19.90;99.90
33207;DHT22;19565;46.602;11.534;2023-07-08T05:08:35;19.90;99.90
33207;DHT22;19565;46.602;11.534;2023-07-08T05:11:03;19.90;99.90
33207;DHT22;19565;46.602;11.534;2023-07-08T05:13:32;19.90;99.90
33207;DHT22;19565;46.602;11.534;2023-07-08T05:16:01;19.90;99.90
33207;DHT22;19565;46.602;11.534;2023-07-08T05:18:29;19.90;99.90
33207;DHT22;19565;46.602;11.534;2023-07-08T05:20:57;19.90;99.90
33207;DHT22;19565;46.602;11.534;2023-07-08T05:23:25;20.00;99.90
33207;DHT22;19565;46.602;11.534;2023-07-08T05:25:53;19.90;99.90
33207;DHT22;19565;46.602;11.534;2023-07-08T05:28:21;20.00;99.90
33207;DHT22;19565;46.602;11.534;2023-07-08T05:30:54;19.90;99.90
33207;DHT22;19565;46.602;11.534;2023-07-08T05:33:23;20.00;99.90
33207;DHT22;19565;46.602;11.534;2023-07-08T05:35:51;19.90;99.90
33207;DHT22;19565;46.602;11.534;2023-07-08T05:38:20;19.90;99.90
33207;DHT22;19565;46.602;11.534;2023-07-08T05:40:48;19.90;99.90
33207;DHT22;19565;46.602;11.534;2023-07-08T05:43:17;19.90;99.90
33207;DHT22;19565;46.602;11.534;2023-07-08T05:45:45;19.90;99.90
33207;DHT22;19565;46.602;11.534;2023-07-08T05:48:35;19.90;99.90
33207;DHT22;19565;46.602;11.534;2023-07-08T05:51:03;19.90;99.90
33207;DHT22;19565;46.602;11.534;2023-07-08T05:53:31;19.90;99.90
33207;DHT22;19565;46.602;11.534;2023-07-08T05:55:59;20.00;99.90
33207;DHT22;19565;46.602;11.534;2023-07-08T05:58:28;20.00;99.90
33207;DHT22;19565;46.602;11.534;2023-07-08T06:00:56;20.00;99.90
33207;DHT22;19565;46.602;11.534;2023-07-08T06:03:25;20.00;99.90
33207;DHT22;19565;46.602;11.534;2023-07-08T06:05:55;20.10;99.90
33207;DHT22;19565;46.602;11.534;2023-07-08T06:08:23;20.10;99.90
33207;DHT22;19565;46.602;11.534;2023-07-08T06:10:51;20.20;99.90
33207;DHT22;19565;46.602;11.534;2023-07-08T06:13:19;20.20;99.90
33207;DHT22;19565;46.602;11.534;2023-07-08T06:15:47;20.30;99.90
33207;DHT22;19565;46.602;11.534;2023-07-08T06:18:15;20.40;99.90
33207;DHT22;19565;46.602;11.534;2023-07-08T06:20:51;20.50;99.90
33207;DHT22;19565;46.602;11.534;2023-07-08T06:23:21;20.40;99.90
33207;DHT22;19565;46.602;11.534;2023-07-08T06:25:49;20.40;99.90
33207;DHT22;19565;46.602;11.534;2023-07-08T06:28:17;20.40;99.90
33207;DHT22;19565;46.602;11.534;2023-07-08T06:30:46;20.40;99.90
33207;DHT22;19565;46.602;11.534;2023-07-08T06:33:14;20.50;99.90
33207;DHT22;19565;46.602;11.534;2023-07-08T06:35:43;20.50;99.90
33207;DHT22;19565;46.602;11.534;2023-07-08T06:38:12;20.50;99.90
33207;DHT22;19565;46.602;11.534;2023-07-08T06:40:42;20.60;99.90
33207;DHT22;19565;46.602;11.534;2023-07-08T06:43:10;20.60;99.90
33207;DHT22;19565;46.602;11.534;2023-07-08T06:45:38;20.70;99.90
33207;DHT22;19565;46.602;11.534;2023-07-08T06:48:06;20.80;99.90
33207;DHT22;19565;46.602;11.534;2023-07-08T06:50:34;20.90;99.90
33207;DHT22;19565;46.602;11.534;2023-07-08T06:53:02;20.90;99.90
33207;DHT22;19565;46.602;11.534;2023-07-08T06:55:30;20.90;99.90
33207;DHT22;19565;46.602;11.534;2023-07-08T06:58:00;21.00;99.90
33207;DHT22;19565;46.602;11.534;2023-07-08T07:00:28;21.10;99.90
33207;DHT22;19565;46.602;11.534;2023-07-08T07:02:56;21.20;99.90
33207;DHT22;19565;46.602;11.534;2023-07-08T07:05:24;21.30;99.90
33207;DHT22;19565;46.602;11.534;2023-07-08T07:07:52;21.40;99.90
33207;DHT22;19565;46.602;11.534;2023-07-08T07:10:20;21.40;99.90
33207;DHT22;19565;46.602;11.534;2023-07-08T07:12:48;21.50;99.90
33207;DHT22;19565;46.602;11.534;2023-07-08T07:15:17;21.60;99.90
33207;DHT22;19565;46.602;11.534;2023-07-08T07:17:45;21.70;99.90
33207;DHT22;19565;46.602;11.534;2023-07-08T07:20:13;21.70;99.90
33207;DHT22;19565;46.602;11.534;2023-07-08T07:22:41;21.80;99.90
33207;DHT22;19565;46.602;11.534;2023-07-08T07:25:09;21.80;99.90
33207;DHT22;19565;46.602;11.534;2023-07-08T07:27:38;21.90;99.90
33207;DHT22;19565;46.602;11.534;2023-07-08T07:30:07;22.00;99.90
33207;DHT22;19565;46.602;11.534;2023-07-08T07:32:41;22.00;99.90
33207;DHT22;19565;46.602;11.534;2023-07-08T07:35:10;22.10;99.90
33207;DHT22;19565;46.602;11.534;2023-07-08T07:37:39;22.10;99.90
33207;DHT22;19565;46.602;11.534;2023-07-08T07:40:08;22.10;99.90
33207;DHT22;19565;46.602;11.534;2023-07-08T07:42:39;22.10;99.90
33207;DHT22;19565;46.602;11.534;2023-07-08T07:45:09;22.20;99.20
33207;DHT22;19565;46.602;11.534;2023-07-08T07:47:37;22.20;98.80
33207;DHT22;19565;46.602;11.534;2023-07-08T07:50:08;22.20;98.50
33207;DHT22;19565;46.602;11.534;2023-07-08T07:52:37;22.30;97.90
33207;DHT22;19565;46.602;11.534;2023-07-08T07:55:05;22.30;97.50
33207;DHT22;19565;46.602;11.534;2023-07-08T07:57:33;22.30;97.30
33207;DHT22;19565;46.602;11.534;2023-07-08T08:00:01;22.30;96.90
33207;DHT22;19565;46.602;11.534;2023-07-08T08:02:29;22.30;96.40
33207;DHT22;19565;46.602;11.534;2023-07-08T08:04:57;22.40;96.10
33207;DHT22;19565;46.602;11.534;2023-07-08T08:07:27;22.40;96.40
33207;DHT22;19565;46.602;11.534;2023-07-08T08:09:55;22.40;96.80
33207;DHT22;19565;46.602;11.534;2023-07-08T08:12:23;22.40;96.20
33207;DHT22;19565;46.602;11.534;2023-07-08T08:14:51;22.40;96.00
33207;DHT22;19565;46.602;11.534;2023-07-08T08:17:19;22.40;96.00
33207;DHT22;19565;46.602;11.534;2023-07-08T08:19:47;22.40;96.00
33207;DHT22;19565;46.602;11.534;2023-07-08T08:22:15;22.50;95.90
33207;DHT22;19565;46.602;11.534;2023-07-08T08:24:44;22.50;95.90
33207;DHT22;19565;46.602;11.534;2023-07-08T08:27:12;22.50;95.80
33207;DHT22;19565;46.602;11.534;2023-07-08T08:29:40;22.50;96.10
33207;DHT22;19565;46.602;11.534;2023-07-08T08:32:11;22.50;95.80
33207;DHT22;19565;46.602;11.534;2023-07-08T08:34:41;22.60;95.90
33207;DHT22;19565;46.602;11.534;2023-07-08T08:37:09;22.60;96.00
33207;DHT22;19565;46.602;11.534;2023-07-08T08:39:37;22.70;96.00
33207;DHT22;19565;46.602;11.534;2023-07-08T08:42:20;22.70;95.90
33207;DHT22;19565;46.602;11.534;2023-07-08T08:44:50;22.80;96.10
33207;DHT22;19565;46.602;11.534;2023-07-08T08:47:27;22.90;96.30
33207;DHT22;19565;46.602;11.534;2023-07-08T08:50:04;23.00;96.30
33207;DHT22;19565;46.602;11.534;2023-07-08T08:52:33;23.10;96.50
33207;DHT22;19565;46.602;11.534;2023-07-08T08:55:01;23.20;96.80
33207;DHT22;19565;46.602;11.534;2023-07-08T08:57:37;23.30;97.00
33207;DHT22;19565;46.602;11.534;2023-07-08T09:00:09;23.30;96.70
33207;DHT22;19565;46.602;11.534;2023-07-08T09:02:45;23.40;97.00
33207;DHT22;19565;46.602;11.534;2023-07-08T09:05:14;23.50;96.80
33207;DHT22;19565;46.602;11.534;2023-07-08T09:07:46;23.50;96.90
33207;DHT22;19565;46.602;11.534;2023-07-08T09:10:25;23.60;96.60
33207;DHT22;19565;46.602;11.534;2023-07-08T09:13:01;23.70;96.90
33207;DHT22;19565;46.602;11.534;2023-07-08T09:15:31;23.70;96.30
33207;DHT22;19565;46.602;11.534;2023-07-08T09:18:16;23.80;96.40
33207;DHT22;19565;46.602;11.534;2023-07-08T09:20:45;23.80;96.60
33207;DHT22;19565;46.602;11.534;2023-07-08T09:23:18;23.90;97.10
33207;DHT22;19565;46.602;11.534;2023-07-08T09:25:52;24.00;97.00
33207;DHT22;19565;46.602;11.534;2023-07-08T09:28:35;24.00;97.00
33207;DHT22;19565;46.602;11.534;2023-07-08T09:31:06;24.00;96.30
33207;DHT22;19565;46.602;11.534;2023-07-08T09:33:38;24.00;96.00
33207;DHT22;19565;46.602;11.534;2023-07-08T09:36:17;24.00;96.50
33207;DHT22;19565;46.602;11.534;2023-07-08T09:38:48;24.00;96.40
33207;DHT22;19565;46.602;11.534;2023-07-08T09:41:32;24.00;96.30
33207;DHT22;19565;46.602;11.534;2023-07-08T09:44:15;24.00;96.20
33207;DHT22;19565;46.602;11.534;2023-07-08T09:46:43;23.90;96.30
33207;DHT22;19565;46.602;11.534;2023-07-08T09:49:23;24.00;95.90
33207;DHT22;19565;46.602;11.534;2023-07-08T09:51:52;24.00;96.10
33207;DHT22;19565;46.602;11.534;2023-07-08T09:54:21;24.00;95.70
33207;DHT22;19565;46.602;11.534;2023-07-08T09:56:55;24.00;95.20
33207;DHT22;19565;46.602;11.534;2023-07-08T09:59:30;24.10;95.00
33207;DHT22;19565;46.602;11.534;2023-07-08T10:02:00;24.10;94.80
33207;DHT22;19565;46.602;11.534;2023-07-08T10:04:30;24.20;94.70
33207;DHT22;19565;46.602;11.534;2023-07-08T10:06:59;24.30;94.20
33207;DHT22;19565;46.602;11.534;2023-07-08T10:09:27;24.40;93.90
33207;DHT22;19565;46.602;11.534;2023-07-08T10:12:00;24.40;93.90
33207;DHT22;19565;46.602;11.534;2023-07-08T10:14:33;24.50;93.50
33207;DHT22;19565;46.602;11.534;2023-07-08T10:17:05;24.60;93.30
33207;DHT22;19565;46.602;11.534;2023-07-08T10:19:33;24.70;92.70
33207;DHT22;19565;46.602;11.534;2023-07-08T10:22:12;24.80;92.50
33207;DHT22;19565;46.602;11.534;2023-07-08T10:24:57;24.90;92.10
33207;DHT22;19565;46.602;11.534;2023-07-08T10:27:34;25.00;92.40
33207;DHT22;19565;46.602;11.534;2023-07-08T10:30:14;25.00;92.50
33207;DHT22;19565;46.602;11.534;2023-07-08T10:32:52;25.10;92.00
33207;DHT22;19565;46.602;11.534;2023-07-08T10:35:27;25.10;92.20
33207;DHT22;19565;46.602;11.534;2023-07-08T10:38:13;25.10;92.00
33207;DHT22;19565;46.602;11.534;2023-07-08T10:40:48;25.10;92.20
33207;DHT22;19565;46.602;11.534;2023-07-08T10:43:44;25.20;92.00
33207;DHT22;19565;46.602;11.534;2023-07-08T10:46:24;25.20;92.10
33207;DHT22;19565;46.602;11.534;2023-07-08T10:49:09;25.20;92.60
33207;DHT22;19565;46.602;11.534;2023-07-08T10:51:48;25.30;91.90
33207;DHT22;19565;46.602;11.534;2023-07-08T10:54:44;25.30;92.10
33207;DHT22;19565;46.602;11.534;2023-07-08T10:57:40;25.40;91.60
33207;DHT22;19565;46.602;11.534;2023-07-08T11:00:19;25.40;91.60
33207;DHT22;19565;46.602;11.534;2023-07-08T11:03:19;25.50;91.70
33207;DHT22;19565;46.602;11.534;2023-07-08T11:05:58;25.50;90.90
33207;DHT22;19565;46.602;11.534;2023-07-08T11:08:30;25.60;90.40
33207;DHT22;19565;46.602;11.534;2023-07-08T11:11:05;25.60;90.80
33207;DHT22;19565;46.602;11.534;2023-07-08T11:13:45;25.60;90.60
33207;DHT22;19565;46.602;11.534;2023-07-08T11:16:21;25.70;90.10
33207;DHT22;19565;46.602;11.534;2023-07-08T11:18:56;25.80;89.30
33207;DHT22;19565;46.602;11.534;2023-07-08T11:21:27;25.80;88.90
33207;DHT22;19565;46.602;11.534;2023-07-08T11:24:02;25.80;88.70
33207;DHT22;19565;46.602;11.534;2023-07-08T11:26:36;25.90;87.40
33207;DHT22;19565;46.602;11.534;2023-07-08T11:29:14;25.90;86.70
33207;DHT22;19565;46.602;11.534;2023-07-08T11:31:43;26.00;87.10
33207;DHT22;19565;46.602;11.534;2023-07-08T11:34:15;26.10;87.00
33207;DHT22;19565;46.602;11.534;2023-07-08T11:36:45;26.20;85.00
33207;DHT22;19565;46.602;11.534;2023-07-08T11:39:33;26.20;83.10
33207;DHT22;19565;46.602;11.534;2023-07-08T11:42:17;26.20;83.40
33207;DHT22;19565;46.602;11.534;2023-07-08T11:44:48;26.30;83.40
33207;DHT22;19565;46.602;11.534;2023-07-08T11:47:22;26.30;82.80
33207;DHT22;19565;46.602;11.534;2023-07-08T11:49:53;26.30;82.20
33207;DHT22;19565;46.602;11.534;2023-07-08T11:52:23;26.30;82.60
33207;DHT22;19565;46.602;11.534;2023-07-08T11:54:57;26.40;82.30
33207;DHT22;19565;46.602;11.534;2023-07-08T11:57:29;26.40;82.40
33207;DHT22;19565;46.602;11.534;2023-07-08T12:00:16;26.50;80.30
33207;DHT22;19565;46.602;11.534;2023-07-08T12:02:55;26.50;79.30
33207;DHT22;19565;46.602;11.534;2023-07-08T12:05:33;26.50;79.20
33207;DHT22;19565;46.602;11.534;2023-07-08T12:08:02;26.60;78.20
33207;DHT22;19565;46.602;11.534;2023-07-08T12:10:40;26.70;78.80
33207;DHT22;19565;46.602;11.534;2023-07-08T12:13:13;26.80;78.50
33207;DHT22;19565;46.602;11.534;2023-07-08T12:15:41;26.80;78.60
33207;DHT22;19565;46.602;11.534;2023-07-08T12:18:13;26.90;77.50
33207;DHT22;19565;46.602;11.534;2023-07-08T12:20:47;27.00;77.40
33207;DHT22;19565;46.602;11.534;2023-07-08T12:23:18;27.10;76.90
33207;DHT22;19565;46.602;11.534;2023-07-08T12:25:49;27.10;76.70
33207;DHT22;19565;46.602;11.534;2023-07-08T12:28:17;27.10;77.70
33207;DHT22;19565;46.602;11.534;2023-07-08T12:30:47;27.20;78.40
33207;DHT22;19565;46.602;11.534;2023-07-08T12:33:19;27.30;78.10
33207;DHT22;19565;46.602;11.534;2023-07-08T12:35:51;27.30;77.10
33207;DHT22;19565;46.602;11.534;2023-07-08T12:38:23;27.40;76.50
33207;DHT22;19565;46.602;11.534;2023-07-08T12:40:55;27.40;77.60
33207;DHT22;19565;46.602;11.534;2023-07-08T12:43:25;27.40;75.70
33207;DHT22;19565;46.602;11.534;2023-07-08T12:45:53;27.50;75.10
33207;DHT22;19565;46.602;11.534;2023-07-08T12:48:21;27.50;75.60
33207;DHT22;19565;46.602;11.534;2023-07-08T12:50:50;27.60;77.30
33207;DHT22;19565;46.602;11.534;2023-07-08T12:53:19;27.70;74.60
33207;DHT22;19565;46.602;11.534;2023-07-08T12:55:56;27.70;74.30
33207;DHT22;19565;46.602;11.534;2023-07-08T12:58:28;27.70;73.50
33207;DHT22;19565;46.602;11.534;2023-07-08T13:00:59;27.70;74.30
33207;DHT22;19565;46.602;11.534;2023-07-08T13:03:30;27.80;75.50
33207;DHT22;19565;46.602;11.534;2023-07-08T13:06:01;27.80;73.80
33207;DHT22;19565;46.602;11.534;2023-07-08T13:08:33;27.80;73.90
33207;DHT22;19565;46.602;11.534;2023-07-08T13:11:03;27.90;73.40
33207;DHT22;19565;46.602;11.534;2023-07-08T13:13:40;28.00;72.60
33207;DHT22;19565;46.602;11.534;2023-07-08T13:16:12;28.00;73.30
33207;DHT22;19565;46.602;11.534;2023-07-08T13:18:40;28.10;74.20
33207;DHT22;19565;46.602;11.534;2023-07-08T13:21:13;28.10;73.30
33207;DHT22;19565;46.602;11.534;2023-07-08T13:23:42;28.20;72.70
33207;DHT22;19565;46.602;11.534;2023-07-08T13:26:15;28.20;72.90
33207;DHT22;19565;46.602;11.534;2023-07-08T13:28:44;28.20;73.30
33207;DHT22;19565;46.602;11.534;2023-07-08T13:31:17;28.10;73.20
33207;DHT22;19565;46.602;11.534;2023-07-08T13:33:52;28.10;74.20
33207;DHT22;19565;46.602;11.534;2023-07-08T13:36:24;28.00;74.30
33207;DHT22;19565;46.602;11.534;2023-07-08T13:38:52;28.00;75.20
33207;DHT22;19565;46.602;11.534;2023-07-08T13:41:22;28.00;75.10
33207;DHT22;19565;46.602;11.534;2023-07-08T13:43:50;27.90;74.60
33207;DHT22;19565;46.602;11.534;2023-07-08T13:46:29;27.90;74.60
33207;DHT22;19565;46.602;11.534;2023-07-08T13:49:00;28.00;76.10
33207;DHT22;19565;46.602;11.534;2023-07-08T13:51:32;28.00;75.20
33207;DHT22;19565;46.602;11.534;2023-07-08T13:54:09;28.10;75.50
33207;DHT22;19565;46.602;11.534;2023-07-08T13:56:41;28.10;73.90
33207;DHT22;19565;46.602;11.534;2023-07-08T13:59:12;28.10;73.30
33207;DHT22;19565;46.602;11.534;2023-07-08T14:01:43;28.10;73.20
33207;DHT22;19565;46.602;11.534;2023-07-08T14:04:13;28.10;73.80
33207;DHT22;19565;46.602;11.534;2023-07-08T14:06:45;28.10;73.50
33207;DHT22;19565;46.602;11.534;2023-07-08T14:09:14;28.20;73.40
33207;DHT22;19565;46.602;11.534;2023-07-08T14:11:44;28.30;73.10
33207;DHT22;19565;46.602;11.534;2023-07-08T14:14:13;28.40;74.30
33207;DHT22;19565;46.602;11.534;2023-07-08T14:16:43;28.40;73.00
33207;DHT22;19565;46.602;11.534;2023-07-08T14:19:15;28.50;72.30
33207;DHT22;19565;46.602;11.534;2023-07-08T14:21:46;28.60;72.10
33207;DHT22;19565;46.602;11.534;2023-07-08T14:24:14;28.70;71.50
33207;DHT22;19565;46.602;11.534;2023-07-08T14:26:44;28.70;71.00
33207;DHT22;19565;46.602;11.534;2023-07-08T14:29:12;29.00;70.20
33207;DHT22;19565;46.602;11.534;2023-07-08T14:31:41;29.30;69.70
33207;DHT22;19565;46.602;11.534;2023-07-08T14:34:12;29.40;69.30
33207;DHT22;19565;46.602;11.534;2023-07-08T14:36:40;29.30;67.20
33207;DHT22;19565;46.602;11.534;2023-07-08T14:39:12;29.20;68.40
33207;DHT22;19565;46.602;11.534;2023-07-08T14:41:40;29.10;68.30
33207;DHT22;19565;46.602;11.534;2023-07-08T14:44:20;29.80;67.00
33207;DHT22;19565;46.602;11.534;2023-07-08T14:46:48;31.20;63.30
33207;DHT22;19565;46.602;11.534;2023-07-08T14:49:19;32.40;60.40
33207;DHT22;19565;46.602;11.534;2023-07-08T14:51:48;32.30;59.20
33207;DHT22;19565;46.602;11.534;2023-07-08T14:54:18;33.10;57.30
33207;DHT22;19565;46.602;11.534;2023-07-08T14:56:47;33.90;54.90
33207;DHT22;19565;46.602;11.534;2023-07-08T14:59:18;34.70;53.90
33207;DHT22;19565;46.602;11.534;2023-07-08T15:01:47;35.50;52.40
33207;DHT22;19565;46.602;11.534;2023-07-08T15:04:18;36.10;50.30
33207;DHT22;19565;46.602;11.534;2023-07-08T15:06:46;36.50;48.80
33207;DHT22;19565;46.602;11.534;2023-07-08T15:09:14;36.40;48.80
33207;DHT22;19565;46.602;11.534;2023-07-08T15:11:45;35.40;49.10
33207;DHT22;19565;46.602;11.534;2023-07-08T15:14:19;34.30;51.60
33207;DHT22;19565;46.602;11.534;2023-07-08T15:16:48;34.20;52.80
33207;DHT22;19565;46.602;11.534;2023-07-08T15:19:17;34.90;52.30
33207;DHT22;19565;46.602;11.534;2023-07-08T15:21:46;35.80;50.60
33207;DHT22;19565;46.602;11.534;2023-07-08T15:24:15;35.60;49.80
33207;DHT22;19565;46.602;11.534;2023-07-08T15:26:46;35.40;50.90
33207;DHT22;19565;46.602;11.534;2023-07-08T15:29:16;35.80;49.00
33207;DHT22;19565;46.602;11.534;2023-07-08T15:31:45;36.30;48.70
33207;DHT22;19565;46.602;11.534;2023-07-08T15:34:14;36.60;47.70
33207;DHT22;19565;46.602;11.534;2023-07-08T15:36:43;36.70;47.80
33207;DHT22;19565;46.602;11.534;2023-07-08T15:39:12;36.60;47.40